sensor_id;sensor_type;location;lat;lon;timestamp;P1;durP1;ratioP1;P2;durP2;ratioP2
76495;SDS011;65329;52.544;4.662;2023-04-19T00:00:45;15.77;;;10.85;;
76495;SDS011;65329;52.544;4.662;2023-04-19T00:03:12;15.15;;;10.25;;
76495;SDS011;65329;52.544;4.662;2023-04-19T00:05:43;14.82;;;9.18;;
76495;SDS011;65329;52.544;4.662;2023-04-19T00:08:10;15.20;;;11.68;;
76495;SDS011;65329;52.544;4.662;2023-04-19T00:10:39;13.50;;;10.55;;
76495;SDS011;65329;52.544;4.662;2023-04-19T00:13:06;14.32;;;10.27;;
76495;SDS011;65329;52.544;4.662;2023-04-19T00:15:33;16.02;;;11.32;;
76495;SDS011;65329;52.544;4.662;2023-04-19T00:18:00;15.43;;;9.30;;
76495;SDS011;65329;52.544;4.662;2023-04-19T00:20:27;17.50;;;11.05;;
76495;SDS011;65329;52.544;4.662;2023-04-19T00:22:55;17.38;;;11.23;;
76495;SDS011;65329;52.544;4.662;2023-04-19T00:25:24;16.63;;;10.52;;
76495;SDS011;65329;52.544;4.662;2023-04-19T00:27:51;19.13;;;11.13;;
76495;SDS011;65329;52.544;4.662;2023-04-19T00:30:19;17.35;;;10.77;;
76495;SDS011;65329;52.544;4.662;2023-04-19T00:32:48;16.05;;;9.70;;
76495;SDS011;65329;52.544;4.662;2023-04-19T00:35:15;16.02;;;11.70;;
76495;SDS011;65329;52.544;4.662;2023-04-19T00:37:42;17.77;;;11.30;;
76495;SDS011;65329;52.544;4.662;2023-04-19T00:40:11;15.93;;;10.43;;
76495;SDS011;65329;52.544;4.662;2023-04-19T00:42:39;17.73;;;12.07;;
76495;SDS011;65329;52.544;4.662;2023-04-19T00:45:06;16.48;;;11.77;;
76495;SDS011;65329;52.544;4.662;2023-04-19T00:47:35;18.95;;;11.82;;
76495;SDS011;65329;52.544;4.662;2023-04-19T00:50:02;18.27;;;12.07;;
76495;SDS011;65329;52.544;4.662;2023-04-19T00:52:31;19.23;;;11.20;;
76495;SDS011;65329;52.544;4.662;2023-04-19T00:54:59;18.60;;;11.45;;
76495;SDS011;65329;52.544;4.662;2023-04-19T00:57:27;17.75;;;11.02;;
76495;SDS011;65329;52.544;4.662;2023-04-19T00:59:55;20.02;;;13.10;;
76495;SDS011;65329;52.544;4.662;2023-04-19T01:02:22;17.55;;;12.82;;
76495;SDS011;65329;52.544;4.662;2023-04-19T01:04:50;20.20;;;12.45;;
76495;SDS011;65329;52.544;4.662;2023-04-19T01:07:18;22.10;;;13.88;;
76495;SDS011;65329;52.544;4.662;2023-04-19T01:09:45;18.60;;;12.10;;
76495;SDS011;65329;52.544;4.662;2023-04-19T01:12:12;18.38;;;10.05;;
76495;SDS011;65329;52.544;4.662;2023-04-19T01:14:41;15.90;;;10.18;;
76495;SDS011;65329;52.544;4.662;2023-04-19T01:17:08;17.00;;;11.60;;
76495;SDS011;65329;52.544;4.662;2023-04-19T01:19:35;16.38;;;10.45;;
76495;SDS011;65329;52.544;4.662;2023-04-19T01:22:04;17.55;;;12.15;;
76495;SDS011;65329;52.544;4.662;2023-04-19T01:24:32;16.40;;;11.63;;
76495;SDS011;65329;52.544;4.662;2023-04-19T01:26:59;23.27;;;11.25;;
76495;SDS011;65329;52.544;4.662;2023-04-19T01:29:27;16.52;;;10.57;;
76495;SDS011;65329;52.544;4.662;2023-04-19T01:31:54;22.38;;;12.48;;
76495;SDS011;65329;52.544;4.662;2023-04-19T01:34:22;22.15;;;13.00;;
76495;SDS011;65329;52.544;4.662;2023-04-19T01:36:49;14.88;;;9.65;;
76495;SDS011;65329;52.544;4.662;2023-04-19T01:39:16;17.75;;;12.40;;
76495;SDS011;65329;52.544;4.662;2023-04-19T01:41:43;19.83;;;13.32;;
76495;SDS011;65329;52.544;4.662;2023-04-19T01:44:11;21.80;;;12.90;;
76495;SDS011;65329;52.544;4.662;2023-04-19T01:46:38;19.50;;;12.50;;
76495;SDS011;65329;52.544;4.662;2023-04-19T01:49:08;16.48;;;10.15;;
76495;SDS011;65329;52.544;4.662;2023-04-19T01:51:36;19.30;;;12.30;;
76495;SDS011;65329;52.544;4.662;2023-04-19T01:54:04;18.73;;;12.35;;
76495;SDS011;65329;52.544;4.662;2023-04-19T01:56:30;21.75;;;13.15;;
76495;SDS011;65329;52.544;4.662;2023-04-19T01:59:00;18.27;;;11.77;;
76495;SDS011;65329;52.544;4.662;2023-04-19T02:01:29;19.15;;;11.55;;
76495;SDS011;65329;52.544;4.662;2023-04-19T02:03:57;17.73;;;12.07;;
76495;SDS011;65329;52.544;4.662;2023-04-19T02:06:24;19.13;;;12.88;;
76495;SDS011;65329;52.544;4.662;2023-04-19T02:08:52;19.17;;;11.48;;
76495;SDS011;65329;52.544;4.662;2023-04-19T02:11:19;19.02;;;12.63;;
76495;SDS011;65329;52.544;4.662;2023-04-19T02:13:47;19.60;;;12.85;;
76495;SDS011;65329;52.544;4.662;2023-04-19T02:16:15;17.35;;;10.02;;
76495;SDS011;65329;52.544;4.662;2023-04-19T02:18:42;16.30;;;11.63;;
76495;SDS011;65329;52.544;4.662;2023-04-19T02:21:09;18.33;;;11.13;;
76495;SDS011;65329;52.544;4.662;2023-04-19T02:23:36;19.58;;;11.52;;
76495;SDS011;65329;52.544;4.662;2023-04-19T02:26:03;18.52;;;12.50;;
76495;SDS011;65329;52.544;4.662;2023-04-19T02:28:31;19.25;;;10.57;;
76495;SDS011;65329;52.544;4.662;2023-04-19T02:31:02;20.55;;;12.10;;
76495;SDS011;65329;52.544;4.662;2023-04-19T02:33:33;18.00;;;11.65;;
76495;SDS011;65329;52.544;4.662;2023-04-19T02:36:00;21.58;;;12.80;;
76495;SDS011;65329;52.544;4.662;2023-04-19T02:38:27;22.73;;;13.95;;
76495;SDS011;65329;52.544;4.662;2023-04-19T02:40:54;18.65;;;12.63;;
76495;SDS011;65329;52.544;4.662;2023-04-19T02:43:21;18.45;;;10.90;;
76495;SDS011;65329;52.544;4.662;2023-04-19T02:45:49;20.48;;;12.88;;
76495;SDS011;65329;52.544;4.662;2023-04-19T02:48:16;17.77;;;12.98;;
76495;SDS011;65329;52.544;4.662;2023-04-19T02:50:45;21.23;;;13.05;;
76495;SDS011;65329;52.544;4.662;2023-04-19T02:53:13;18.30;;;11.82;;
76495;SDS011;65329;52.544;4.662;2023-04-19T02:55:40;18.05;;;11.60;;
76495;SDS011;65329;52.544;4.662;2023-04-19T02:58:13;17.33;;;10.57;;
76495;SDS011;65329;52.544;4.662;2023-04-19T03:00:50;19.05;;;13.02;;
76495;SDS011;65329;52.544;4.662;2023-04-19T03:03:20;19.15;;;12.68;;
76495;SDS011;65329;52.544;4.662;2023-04-19T03:05:47;17.13;;;10.77;;
76495;SDS011;65329;52.544;4.662;2023-04-19T03:08:14;18.13;;;11.50;;
76495;SDS011;65329;52.544;4.662;2023-04-19T03:10:43;17.00;;;11.25;;
76495;SDS011;65329;52.544;4.662;2023-04-19T03:13:10;17.02;;;10.57;;
76495;SDS011;65329;52.544;4.662;2023-04-19T03:15:37;18.65;;;10.57;;
76495;SDS011;65329;52.544;4.662;2023-04-19T03:18:04;18.20;;;11.45;;
76495;SDS011;65329;52.544;4.662;2023-04-19T03:20:33;17.05;;;11.20;;
76495;SDS011;65329;52.544;4.662;2023-04-19T03:23:00;19.42;;;11.52;;
76495;SDS011;65329;52.544;4.662;2023-04-19T03:25:29;18.80;;;10.90;;
76495;SDS011;65329;52.544;4.662;2023-04-19T03:28:09;16.00;;;9.55;;
76495;SDS011;65329;52.544;4.662;2023-04-19T03:30:56;16.73;;;11.00;;
76495;SDS011;65329;52.544;4.662;2023-04-19T03:33:23;15.88;;;10.25;;
76495;SDS011;65329;52.544;4.662;2023-04-19T03:35:52;18.73;;;10.45;;
76495;SDS011;65329;52.544;4.662;2023-04-19T03:38:19;13.10;;;8.15;;
76495;SDS011;65329;52.544;4.662;2023-04-19T03:40:46;18.67;;;9.82;;
76495;SDS011;65329;52.544;4.662;2023-04-19T03:43:17;12.52;;;8.63;;
76495;SDS011;65329;52.544;4.662;2023-04-19T03:45:44;14.15;;;8.70;;
76495;SDS011;65329;52.544;4.662;2023-04-19T03:48:11;12.73;;;8.23;;
76495;SDS011;65329;52.544;4.662;2023-04-19T03:50:38;15.55;;;9.30;;
76495;SDS011;65329;52.544;4.662;2023-04-19T03:53:09;13.43;;;8.38;;
76495;SDS011;65329;52.544;4.662;2023-04-19T03:55:36;11.55;;;7.07;;
76495;SDS011;65329;52.544;4.662;2023-04-19T03:58:04;8.93;;;6.03;;
76495;SDS011;65329;52.544;4.662;2023-04-19T04:00:42;15.95;;;8.85;;
76495;SDS011;65329;52.544;4.662;2023-04-19T04:03:11;11.75;;;8.45;;
76495;SDS011;65329;52.544;4.662;2023-04-19T04:05:39;13.57;;;8.48;;
76495;SDS011;65329;52.544;4.662;2023-04-19T04:08:06;11.77;;;8.13;;
76495;SDS011;65329;52.544;4.662;2023-04-19T04:10:33;12.50;;;8.35;;
76495;SDS011;65329;52.544;4.662;2023-04-19T04:13:00;13.65;;;7.68;;
76495;SDS011;65329;52.544;4.662;2023-04-19T04:15:41;12.73;;;8.30;;
76495;SDS011;65329;52.544;4.662;2023-04-19T04:18:11;10.45;;;6.80;;
76495;SDS011;65329;52.544;4.662;2023-04-19T04:20:38;11.20;;;6.70;;
76495;SDS011;65329;52.544;4.662;2023-04-19T04:23:08;11.43;;;7.38;;
76495;SDS011;65329;52.544;4.662;2023-04-19T04:25:40;12.25;;;7.47;;
76495;SDS011;65329;52.544;4.662;2023-04-19T04:28:11;10.95;;;7.80;;
76495;SDS011;65329;52.544;4.662;2023-04-19T04:30:39;11.73;;;7.30;;
76495;SDS011;65329;52.544;4.662;2023-04-19T04:33:09;13.07;;;7.93;;
76495;SDS011;65329;52.544;4.662;2023-04-19T04:35:39;8.02;;;5.82;;
76495;SDS011;65329;52.544;4.662;2023-04-19T04:38:12;11.90;;;7.32;;
76495;SDS011;65329;52.544;4.662;2023-04-19T04:40:51;13.05;;;7.43;;
76495;SDS011;65329;52.544;4.662;2023-04-19T04:43:23;10.57;;;6.57;;
76495;SDS011;65329;52.544;4.662;2023-04-19T04:45:51;10.15;;;7.28;;
76495;SDS011;65329;52.544;4.662;2023-04-19T04:48:22;11.15;;;7.25;;
76495;SDS011;65329;52.544;4.662;2023-04-19T04:50:49;10.30;;;6.53;;
76495;SDS011;65329;52.544;4.662;2023-04-19T04:53:17;10.20;;;6.85;;
76495;SDS011;65329;52.544;4.662;2023-04-19T04:55:45;11.48;;;7.43;;
76495;SDS011;65329;52.544;4.662;2023-04-19T04:58:13;9.10;;;6.68;;
76495;SDS011;65329;52.544;4.662;2023-04-19T05:01:06;11.52;;;6.82;;
76495;SDS011;65329;52.544;4.662;2023-04-19T05:03:37;11.38;;;7.38;;
76495;SDS011;65329;52.544;4.662;2023-04-19T05:06:09;10.05;;;6.78;;
76495;SDS011;65329;52.544;4.662;2023-04-19T05:08:37;9.27;;;6.50;;
76495;SDS011;65329;52.544;4.662;2023-04-19T05:11:13;9.43;;;6.57;;
76495;SDS011;65329;52.544;4.662;2023-04-19T05:13:41;11.52;;;7.45;;
76495;SDS011;65329;52.544;4.662;2023-04-19T05:16:08;9.27;;;6.13;;
76495;SDS011;65329;52.544;4.662;2023-04-19T05:18:37;10.48;;;6.90;;
76495;SDS011;65329;52.544;4.662;2023-04-19T05:21:05;11.68;;;7.57;;
76495;SDS011;65329;52.544;4.662;2023-04-19T05:23:34;11.07;;;6.18;;
76495;SDS011;65329;52.544;4.662;2023-04-19T05:26:02;7.30;;;5.03;;
76495;SDS011;65329;52.544;4.662;2023-04-19T05:28:29;11.05;;;7.00;;
76495;SDS011;65329;52.544;4.662;2023-04-19T05:31:03;8.73;;;5.93;;
76495;SDS011;65329;52.544;4.662;2023-04-19T05:33:37;9.80;;;6.57;;
76495;SDS011;65329;52.544;4.662;2023-04-19T05:36:05;9.70;;;5.85;;
76495;SDS011;65329;52.544;4.662;2023-04-19T05:38:32;12.25;;;6.40;;
76495;SDS011;65329;52.544;4.662;2023-04-19T05:41:01;11.05;;;5.93;;
76495;SDS011;65329;52.544;4.662;2023-04-19T05:43:29;10.95;;;5.53;;
76495;SDS011;65329;52.544;4.662;2023-04-19T05:45:57;7.10;;;5.32;;
76495;SDS011;65329;52.544;4.662;2023-04-19T05:48:24;8.50;;;6.00;;
76495;SDS011;65329;52.544;4.662;2023-04-19T05:51:06;11.07;;;5.95;;
76495;SDS011;65329;52.544;4.662;2023-04-19T05:53:52;7.20;;;5.68;;
76495;SDS011;65329;52.544;4.662;2023-04-19T05:56:23;14.35;;;6.60;;
76495;SDS011;65329;52.544;4.662;2023-04-19T05:58:50;9.07;;;6.75;;
76495;SDS011;65329;52.544;4.662;2023-04-19T06:01:17;8.55;;;5.18;;
76495;SDS011;65329;52.544;4.662;2023-04-19T06:03:45;9.20;;;5.90;;
76495;SDS011;65329;52.544;4.662;2023-04-19T06:06:12;11.10;;;6.20;;
76495;SDS011;65329;52.544;4.662;2023-04-19T06:08:40;7.60;;;4.47;;
76495;SDS011;65329;52.544;4.662;2023-04-19T06:11:08;8.65;;;5.95;;
76495;SDS011;65329;52.544;4.662;2023-04-19T06:13:50;6.45;;;5.32;;
76495;SDS011;65329;52.544;4.662;2023-04-19T06:16:17;9.10;;;5.72;;
76495;SDS011;65329;52.544;4.662;2023-04-19T06:18:44;6.28;;;3.92;;
76495;SDS011;65329;52.544;4.662;2023-04-19T06:21:11;6.70;;;3.90;;
76495;SDS011;65329;52.544;4.662;2023-04-19T06:23:38;12.13;;;5.10;;
76495;SDS011;65329;52.544;4.662;2023-04-19T06:26:05;8.40;;;5.78;;
76495;SDS011;65329;52.544;4.662;2023-04-19T06:28:32;6.50;;;4.35;;
76495;SDS011;65329;52.544;4.662;2023-04-19T06:30:59;6.05;;;4.50;;
76495;SDS011;65329;52.544;4.662;2023-04-19T06:33:26;5.43;;;4.28;;
76495;SDS011;65329;52.544;4.662;2023-04-19T06:35:53;7.30;;;4.55;;
76495;SDS011;65329;52.544;4.662;2023-04-19T06:38:20;6.85;;;4.25;;
76495;SDS011;65329;52.544;4.662;2023-04-19T06:40:47;6.53;;;3.60;;
76495;SDS011;65329;52.544;4.662;2023-04-19T06:43:14;5.90;;;4.38;;
76495;SDS011;65329;52.544;4.662;2023-04-19T06:45:41;6.70;;;4.03;;
76495;SDS011;65329;52.544;4.662;2023-04-19T06:48:08;6.70;;;4.13;;
76495;SDS011;65329;52.544;4.662;2023-04-19T06:50:38;7.00;;;4.75;;
76495;SDS011;65329;52.544;4.662;2023-04-19T06:53:05;5.35;;;4.15;;
76495;SDS011;65329;52.544;4.662;2023-04-19T06:55:33;7.88;;;3.83;;
76495;SDS011;65329;52.544;4.662;2023-04-19T06:58:00;5.97;;;4.40;;
76495;SDS011;65329;52.544;4.662;2023-04-19T07:00:27;7.30;;;4.97;;
76495;SDS011;65329;52.544;4.662;2023-04-19T07:02:54;5.25;;;4.28;;
76495;SDS011;65329;52.544;4.662;2023-04-19T07:05:22;5.90;;;4.00;;
76495;SDS011;65329;52.544;4.662;2023-04-19T07:07:49;5.97;;;4.18;;
76495;SDS011;65329;52.544;4.662;2023-04-19T07:10:18;4.20;;;3.10;;
76495;SDS011;65329;52.544;4.662;2023-04-19T07:12:45;7.65;;;4.53;;
76495;SDS011;65329;52.544;4.662;2023-04-19T07:15:14;7.53;;;4.03;;
76495;SDS011;65329;52.544;4.662;2023-04-19T07:17:41;6.30;;;4.20;;
76495;SDS011;65329;52.544;4.662;2023-04-19T07:20:08;5.55;;;3.95;;
76495;SDS011;65329;52.544;4.662;2023-04-19T07:22:36;5.85;;;3.90;;
76495;SDS011;65329;52.544;4.662;2023-04-19T07:25:03;8.65;;;4.40;;
76495;SDS011;65329;52.544;4.662;2023-04-19T07:27:31;5.28;;;3.75;;
76495;SDS011;65329;52.544;4.662;2023-04-19T07:29:58;7.53;;;3.67;;
76495;SDS011;65329;52.544;4.662;2023-04-19T07:32:26;5.18;;;4.20;;
76495;SDS011;65329;52.544;4.662;2023-04-19T07:34:53;5.95;;;3.67;;
76495;SDS011;65329;52.544;4.662;2023-04-19T07:37:20;5.05;;;3.97;;
76495;SDS011;65329;52.544;4.662;2023-04-19T07:39:47;9.52;;;4.22;;
76495;SDS011;65329;52.544;4.662;2023-04-19T07:42:14;3.70;;;3.28;;
76495;SDS011;65329;52.544;4.662;2023-04-19T07:44:41;4.15;;;3.40;;
76495;SDS011;65329;52.544;4.662;2023-04-19T07:47:08;13.55;;;4.82;;
76495;SDS011;65329;52.544;4.662;2023-04-19T07:49:35;6.60;;;3.40;;
76495;SDS011;65329;52.544;4.662;2023-04-19T07:52:06;6.97;;;4.15;;
76495;SDS011;65329;52.544;4.662;2023-04-19T07:54:33;5.47;;;4.25;;
76495;SDS011;65329;52.544;4.662;2023-04-19T07:57:01;4.43;;;3.05;;
76495;SDS011;65329;52.544;4.662;2023-04-19T07:59:28;5.00;;;4.05;;
76495;SDS011;65329;52.544;4.662;2023-04-19T08:01:56;5.63;;;3.78;;
76495;SDS011;65329;52.544;4.662;2023-04-19T08:04:24;5.55;;;3.45;;
76495;SDS011;65329;52.544;4.662;2023-04-19T08:06:52;4.18;;;3.50;;
76495;SDS011;65329;52.544;4.662;2023-04-19T08:09:19;7.95;;;3.20;;
76495;SDS011;65329;52.544;4.662;2023-04-19T08:11:46;3.53;;;2.88;;
76495;SDS011;65329;52.544;4.662;2023-04-19T08:14:13;3.67;;;3.38;;
76495;SDS011;65329;52.544;4.662;2023-04-19T08:16:58;4.28;;;2.83;;
76495;SDS011;65329;52.544;4.662;2023-04-19T08:19:27;4.38;;;3.15;;
76495;SDS011;65329;52.544;4.662;2023-04-19T08:21:55;4.65;;;3.45;;
76495;SDS011;65329;52.544;4.662;2023-04-19T08:24:22;3.67;;;2.90;;
76495;SDS011;65329;52.544;4.662;2023-04-19T08:26:50;2.95;;;2.38;;
76495;SDS011;65329;52.544;4.662;2023-04-19T08:29:20;3.65;;;2.95;;
76495;SDS011;65329;52.544;4.662;2023-04-19T08:31:48;4.68;;;2.65;;
76495;SDS011;65329;52.544;4.662;2023-04-19T08:34:15;8.90;;;3.00;;
76495;SDS011;65329;52.544;4.662;2023-04-19T08:36:49;2.90;;;1.98;;
76495;SDS011;65329;52.544;4.662;2023-04-19T08:39:29;2.08;;;1.73;;
76495;SDS011;65329;52.544;4.662;2023-04-19T08:42:02;2.90;;;1.92;;
76495;SDS011;65329;52.544;4.662;2023-04-19T08:47:38;2.20;;;1.65;;
76495;SDS011;65329;52.544;4.662;2023-04-19T08:50:24;2.95;;;1.98;;
76495;SDS011;65329;52.544;4.662;2023-04-19T08:53:01;2.97;;;2.05;;
76495;SDS011;65329;52.544;4.662;2023-04-19T08:55:48;3.25;;;2.00;;
76495;SDS011;65329;52.544;4.662;2023-04-19T08:58:20;4.75;;;1.67;;
76495;SDS011;65329;52.544;4.662;2023-04-19T09:01:05;2.22;;;1.80;;
76495;SDS011;65329;52.544;4.662;2023-04-19T09:03:47;3.95;;;2.83;;
76495;SDS011;65329;52.544;4.662;2023-04-19T09:06:37;4.40;;;3.30;;
76495;SDS011;65329;52.544;4.662;2023-04-19T09:09:27;4.22;;;2.78;;
76495;SDS011;65329;52.544;4.662;2023-04-19T09:11:57;4.10;;;2.95;;
76495;SDS011;65329;52.544;4.662;2023-04-19T09:14:25;3.55;;;3.05;;
76495;SDS011;65329;52.544;4.662;2023-04-19T09:17:09;3.47;;;3.17;;
76495;SDS011;65329;52.544;4.662;2023-04-19T09:19:44;4.57;;;2.80;;
76495;SDS011;65329;52.544;4.662;2023-04-19T09:22:13;4.93;;;2.45;;
76495;SDS011;65329;52.544;4.662;2023-04-19T09:24:41;3.83;;;2.40;;
76495;SDS011;65329;52.544;4.662;2023-04-19T09:27:11;4.10;;;2.80;;
76495;SDS011;65329;52.544;4.662;2023-04-19T09:29:38;2.78;;;2.03;;
76495;SDS011;65329;52.544;4.662;2023-04-19T09:32:06;4.93;;;2.17;;
76495;SDS011;65329;52.544;4.662;2023-04-19T09:34:33;3.90;;;1.83;;
76495;SDS011;65329;52.544;4.662;2023-04-19T09:37:13;8.77;;;2.15;;
76495;SDS011;65329;52.544;4.662;2023-04-19T09:40:00;2.65;;;1.88;;
76495;SDS011;65329;52.544;4.662;2023-04-19T09:42:43;3.53;;;2.38;;
76495;SDS011;65329;52.544;4.662;2023-04-19T09:45:17;4.78;;;2.15;;
76495;SDS011;65329;52.544;4.662;2023-04-19T09:48:01;3.90;;;1.92;;
76495;SDS011;65329;52.544;4.662;2023-04-19T09:50:29;2.50;;;1.55;;
76495;SDS011;65329;52.544;4.662;2023-04-19T09:52:59;4.03;;;1.63;;
76495;SDS011;65329;52.544;4.662;2023-04-19T09:55:26;3.45;;;1.95;;
76495;SDS011;65329;52.544;4.662;2023-04-19T09:58:01;4.00;;;2.20;;
76495;SDS011;65329;52.544;4.662;2023-04-19T10:00:28;3.80;;;1.30;;
76495;SDS011;65329;52.544;4.662;2023-04-19T10:03:08;1.20;;;0.95;;
76495;SDS011;65329;52.544;4.662;2023-04-19T10:05:36;1.92;;;1.50;;
76495;SDS011;65329;52.544;4.662;2023-04-19T10:08:06;3.33;;;2.08;;
76495;SDS011;65329;52.544;4.662;2023-04-19T10:10:34;5.57;;;2.42;;
76495;SDS011;65329;52.544;4.662;2023-04-19T10:13:12;2.67;;;1.50;;
76495;SDS011;65329;52.544;4.662;2023-04-19T10:15:47;2.00;;;1.80;;
76495;SDS011;65329;52.544;4.662;2023-04-19T10:18:20;1.88;;;1.10;;
76495;SDS011;65329;52.544;4.662;2023-04-19T10:20:57;4.05;;;2.10;;
76495;SDS011;65329;52.544;4.662;2023-04-19T10:23:27;3.03;;;1.60;;
76495;SDS011;65329;52.544;4.662;2023-04-19T10:25:55;1.75;;;1.35;;
76495;SDS011;65329;52.544;4.662;2023-04-19T10:28:23;1.35;;;1.05;;
76495;SDS011;65329;52.544;4.662;2023-04-19T10:30:51;2.63;;;1.50;;
76495;SDS011;65329;52.544;4.662;2023-04-19T10:33:24;2.60;;;1.75;;
76495;SDS011;65329;52.544;4.662;2023-04-19T10:35:57;1.27;;;1.05;;
76495;SDS011;65329;52.544;4.662;2023-04-19T10:38:34;1.15;;;0.73;;
76495;SDS011;65329;52.544;4.662;2023-04-19T10:41:03;3.45;;;1.60;;
76495;SDS011;65329;52.544;4.662;2023-04-19T10:43:47;1.55;;;0.90;;
76495;SDS011;65329;52.544;4.662;2023-04-19T10:46:35;1.52;;;1.15;;
76495;SDS011;65329;52.544;4.662;2023-04-19T10:49:06;2.15;;;1.40;;
76495;SDS011;65329;52.544;4.662;2023-04-19T10:51:36;3.28;;;1.95;;
76495;SDS011;65329;52.544;4.662;2023-04-19T10:57:04;12.43;;;3.60;;
76495;SDS011;65329;52.544;4.662;2023-04-19T10:59:33;2.05;;;1.65;;
76495;SDS011;65329;52.544;4.662;2023-04-19T11:02:02;4.68;;;2.25;;
76495;SDS011;65329;52.544;4.662;2023-04-19T11:04:58;2.90;;;1.70;;
76495;SDS011;65329;52.544;4.662;2023-04-19T11:07:26;4.82;;;2.45;;
76495;SDS011;65329;52.544;4.662;2023-04-19T11:09:53;3.08;;;2.20;;
76495;SDS011;65329;52.544;4.662;2023-04-19T11:12:22;3.22;;;2.50;;
76495;SDS011;65329;52.544;4.662;2023-04-19T11:14:53;2.22;;;1.85;;
76495;SDS011;65329;52.544;4.662;2023-04-19T11:22:33;3.90;;;2.00;;
76495;SDS011;65329;52.544;4.662;2023-04-19T11:27:36;2.67;;;1.73;;
76495;SDS011;65329;52.544;4.662;2023-04-19T11:30:05;3.22;;;2.20;;
76495;SDS011;65329;52.544;4.662;2023-04-19T11:32:43;4.72;;;2.10;;
76495;SDS011;65329;52.544;4.662;2023-04-19T11:35:11;3.42;;;1.90;;
76495;SDS011;65329;52.544;4.662;2023-04-19T11:37:38;3.03;;;2.17;;
76495;SDS011;65329;52.544;4.662;2023-04-19T11:40:05;6.70;;;2.85;;
76495;SDS011;65329;52.544;4.662;2023-04-19T11:42:34;3.97;;;2.13;;
76495;SDS011;65329;52.544;4.662;2023-04-19T11:45:01;3.63;;;2.22;;
76495;SDS011;65329;52.544;4.662;2023-04-19T11:47:29;7.78;;;2.42;;
76495;SDS011;65329;52.544;4.662;2023-04-19T11:50:29;3.17;;;2.22;;
76495;SDS011;65329;52.544;4.662;2023-04-19T11:53:01;3.08;;;2.28;;
76495;SDS011;65329;52.544;4.662;2023-04-19T11:55:42;2.35;;;2.13;;
76495;SDS011;65329;52.544;4.662;2023-04-19T12:01:19;2.65;;;2.10;;
76495;SDS011;65329;52.544;4.662;2023-04-19T12:03:47;2.92;;;2.03;;
76495;SDS011;65329;52.544;4.662;2023-04-19T12:06:16;3.15;;;1.85;;
76495;SDS011;65329;52.544;4.662;2023-04-19T12:08:45;2.67;;;1.80;;
76495;SDS011;65329;52.544;4.662;2023-04-19T12:11:14;2.17;;;1.98;;
76495;SDS011;65329;52.544;4.662;2023-04-19T12:13:42;5.38;;;2.05;;
76495;SDS011;65329;52.544;4.662;2023-04-19T12:16:10;1.98;;;1.35;;
76495;SDS011;65329;52.544;4.662;2023-04-19T12:18:56;2.17;;;1.98;;
76495;SDS011;65329;52.544;4.662;2023-04-19T12:21:27;1.80;;;1.42;;
76495;SDS011;65329;52.544;4.662;2023-04-19T12:23:58;1.85;;;1.27;;
76495;SDS011;65329;52.544;4.662;2023-04-19T12:26:27;3.45;;;2.67;;
76495;SDS011;65329;52.544;4.662;2023-04-19T12:28:55;3.10;;;2.30;;
76495;SDS011;65329;52.544;4.662;2023-04-19T12:31:24;2.80;;;1.90;;
76495;SDS011;65329;52.544;4.662;2023-04-19T12:33:51;2.20;;;1.52;;
76495;SDS011;65329;52.544;4.662;2023-04-19T12:36:19;3.28;;;1.70;;
76495;SDS011;65329;52.544;4.662;2023-04-19T12:38:46;1.63;;;1.33;;
76495;SDS011;65329;52.544;4.662;2023-04-19T12:41:14;2.85;;;2.03;;
76495;SDS011;65329;52.544;4.662;2023-04-19T12:43:41;2.70;;;1.90;;
76495;SDS011;65329;52.544;4.662;2023-04-19T12:46:08;2.55;;;2.13;;
76495;SDS011;65329;52.544;4.662;2023-04-19T12:48:35;2.65;;;1.77;;
76495;SDS011;65329;52.544;4.662;2023-04-19T12:51:02;2.67;;;1.85;;
76495;SDS011;65329;52.544;4.662;2023-04-19T12:53:29;3.58;;;1.70;;
76495;SDS011;65329;52.544;4.662;2023-04-19T12:55:56;2.33;;;1.88;;
76495;SDS011;65329;52.544;4.662;2023-04-19T12:58:24;2.58;;;1.48;;
76495;SDS011;65329;52.544;4.662;2023-04-19T13:00:53;2.38;;;1.90;;
76495;SDS011;65329;52.544;4.662;2023-04-19T13:03:20;2.92;;;1.80;;
76495;SDS011;65329;52.544;4.662;2023-04-19T13:05:48;2.10;;;1.70;;
76495;SDS011;65329;52.544;4.662;2023-04-19T13:08:15;2.13;;;1.33;;
76495;SDS011;65329;52.544;4.662;2023-04-19T13:10:43;1.05;;;0.95;;
76495;SDS011;65329;52.544;4.662;2023-04-19T13:13:10;3.30;;;1.83;;
76495;SDS011;65329;52.544;4.662;2023-04-19T13:15:37;3.88;;;1.67;;
76495;SDS011;65329;52.544;4.662;2023-04-19T13:18:04;2.20;;;1.60;;
76495;SDS011;65329;52.544;4.662;2023-04-19T13:20:32;2.78;;;1.50;;
76495;SDS011;65329;52.544;4.662;2023-04-19T13:22:59;1.80;;;1.42;;
76495;SDS011;65329;52.544;4.662;2023-04-19T13:25:26;2.65;;;1.20;;
76495;SDS011;65329;52.544;4.662;2023-04-19T13:27:53;2.30;;;1.10;;
76495;SDS011;65329;52.544;4.662;2023-04-19T13:30:21;1.70;;;1.30;;
76495;SDS011;65329;52.544;4.662;2023-04-19T13:32:48;1.95;;;1.15;;
76495;SDS011;65329;52.544;4.662;2023-04-19T13:35:15;2.85;;;1.10;;
76495;SDS011;65329;52.544;4.662;2023-04-19T13:37:42;2.67;;;1.17;;
76495;SDS011;65329;52.544;4.662;2023-04-19T13:40:10;1.83;;;1.58;;
76495;SDS011;65329;52.544;4.662;2023-04-19T13:42:45;2.13;;;0.98;;
76495;SDS011;65329;52.544;4.662;2023-04-19T13:45:12;1.58;;;1.48;;
76495;SDS011;65329;52.544;4.662;2023-04-19T13:47:39;3.10;;;1.08;;
76495;SDS011;65329;52.544;4.662;2023-04-19T13:50:07;2.15;;;1.27;;
76495;SDS011;65329;52.544;4.662;2023-04-19T13:52:34;3.33;;;1.58;;
76495;SDS011;65329;52.544;4.662;2023-04-19T13:55:01;1.40;;;1.00;;
76495;SDS011;65329;52.544;4.662;2023-04-19T13:57:28;1.63;;;1.00;;
76495;SDS011;65329;52.544;4.662;2023-04-19T13:59:55;2.67;;;1.50;;
76495;SDS011;65329;52.544;4.662;2023-04-19T14:02:22;1.20;;;1.10;;
76495;SDS011;65329;52.544;4.662;2023-04-19T14:04:49;1.67;;;1.30;;
76495;SDS011;65329;52.544;4.662;2023-04-19T14:07:17;1.40;;;0.95;;
76495;SDS011;65329;52.544;4.662;2023-04-19T14:09:44;1.40;;;1.25;;
76495;SDS011;65329;52.544;4.662;2023-04-19T14:12:12;1.75;;;1.20;;
76495;SDS011;65329;52.544;4.662;2023-04-19T14:14:38;2.55;;;1.20;;
76495;SDS011;65329;52.544;4.662;2023-04-19T14:17:08;2.25;;;1.65;;
76495;SDS011;65329;52.544;4.662;2023-04-19T14:19:35;2.22;;;1.40;;
76495;SDS011;65329;52.544;4.662;2023-04-19T14:22:03;3.03;;;1.83;;
76495;SDS011;65329;52.544;4.662;2023-04-19T14:24:30;2.08;;;1.77;;
76495;SDS011;65329;52.544;4.662;2023-04-19T14:26:57;3.15;;;1.60;;
76495;SDS011;65329;52.544;4.662;2023-04-19T14:29:36;2.03;;;1.42;;
76495;SDS011;65329;52.544;4.662;2023-04-19T14:32:07;3.17;;;1.63;;
76495;SDS011;65329;52.544;4.662;2023-04-19T14:34:50;2.65;;;1.88;;
76495;SDS011;65329;52.544;4.662;2023-04-19T14:37:19;2.35;;;2.03;;
76495;SDS011;65329;52.544;4.662;2023-04-19T14:39:50;2.63;;;1.20;;
76495;SDS011;65329;52.544;4.662;2023-04-19T14:42:18;2.08;;;1.88;;
76495;SDS011;65329;52.544;4.662;2023-04-19T14:44:49;2.55;;;1.60;;
76495;SDS011;65329;52.544;4.662;2023-04-19T14:47:17;3.65;;;1.52;;
76495;SDS011;65329;52.544;4.662;2023-04-19T14:49:44;3.05;;;2.00;;
76495;SDS011;65329;52.544;4.662;2023-04-19T14:52:12;2.53;;;1.58;;
76495;SDS011;65329;52.544;4.662;2023-04-19T14:54:39;3.08;;;1.90;;
76495;SDS011;65329;52.544;4.662;2023-04-19T14:57:06;4.57;;;1.25;;
76495;SDS011;65329;52.544;4.662;2023-04-19T14:59:33;2.22;;;1.40;;
76495;SDS011;65329;52.544;4.662;2023-04-19T15:02:00;1.70;;;1.60;;
76495;SDS011;65329;52.544;4.662;2023-04-19T15:04:27;2.55;;;1.80;;
76495;SDS011;65329;52.544;4.662;2023-04-19T15:06:54;2.50;;;2.30;;
76495;SDS011;65329;52.544;4.662;2023-04-19T15:09:22;3.38;;;2.28;;
76495;SDS011;65329;52.544;4.662;2023-04-19T15:11:49;4.05;;;2.53;;